createdAt,value
2022-09-04T00:01:48.917Z,2.30
2022-09-04T00:04:23.038Z,2.60
2022-09-04T00:06:55.317Z,1.93
2022-09-04T00:09:29.984Z,2.43
2022-09-04T00:12:00.366Z,2.30
2022-09-04T00:14:31.784Z,2.10
2022-09-04T00:17:04.063Z,2.40
2022-09-04T00:19:36.073Z,2.57
2022-09-04T00:22:06.183Z,2.10
2022-09-04T00:24:36.831Z,2.27
2022-09-04T00:27:06.722Z,2.70
2022-09-04T00:29:38.942Z,3.03
2022-09-04T00:32:10.413Z,2.17
2022-09-04T00:34:46.142Z,2.17
2022-09-04T00:37:17.686Z,2.27
2022-09-04T00:39:47.802Z,2.50
2022-09-04T00:42:24.190Z,2.27
2022-09-04T00:44:55.391Z,2.57
2022-09-04T00:47:35.320Z,2.40
2022-09-04T00:50:18.039Z,2.20
2022-09-04T00:52:58.252Z,2.40
2022-09-04T00:55:31.978Z,2.30
2022-09-04T00:58:11.266Z,2.53
2022-09-04T01:00:39.857Z,2.87
2022-09-04T01:03:30.348Z,2.70
2022-09-04T01:06:08.918Z,2.67
2022-09-04T01:08:42.671Z,2.27
2022-09-04T01:11:15.107Z,2.13
2022-09-04T01:13:44.737Z,1.97
2022-09-04T01:16:17.083Z,2.30
2022-09-04T01:18:49.494Z,2.60
2022-09-04T01:21:31.018Z,2.13
2022-09-04T01:24:17.491Z,2.53
2022-09-04T01:26:49.134Z,2.47
2022-09-04T01:29:23.887Z,2.40
2022-09-04T01:31:54.339Z,2.50
2022-09-04T01:34:28.296Z,2.60
2022-09-04T01:37:00.261Z,2.13
2022-09-04T01:39:30.423Z,2.37
2022-09-04T01:42:01.721Z,2.20
2022-09-04T01:44:31.069Z,2.47
2022-09-04T01:47:03.797Z,2.10
2022-09-04T01:49:35.758Z,2.47
2022-09-04T01:52:19.409Z,2.40
2022-09-04T01:55:01.156Z,2.10
2022-09-04T01:57:39.694Z,2.23
2022-09-04T02:00:09.885Z,1.93
2022-09-04T02:02:56.062Z,2.43
2022-09-04T02:05:27.918Z,2.03
2022-09-04T02:08:02.585Z,2.10
2022-09-04T02:10:34.414Z,2.13
2022-09-04T02:13:09.393Z,2.20
2022-09-04T02:15:43.021Z,2.50
2022-09-04T02:18:15.189Z,2.67
2022-09-04T02:20:47.859Z,2.03
2022-09-04T02:23:19.584Z,1.67
2022-09-04T02:25:50.519Z,1.93
2022-09-04T02:28:25.048Z,2.00
2022-09-04T02:30:57.023Z,1.90
2022-09-04T02:33:30.894Z,1.80
2022-09-04T02:36:01.259Z,1.40
2022-09-04T02:38:33.774Z,1.53
2022-09-04T02:41:06.575Z,2.00
2022-09-04T02:43:45.694Z,1.90
2022-09-04T02:46:17.522Z,1.80
2022-09-04T02:48:57.761Z,1.57
2022-09-04T02:51:32.282Z,1.60
2022-09-04T02:54:04.039Z,1.70
2022-09-04T02:56:39.389Z,1.40
2022-09-04T02:59:24.881Z,1.77
2022-09-04T03:01:57.736Z,1.43
2022-09-04T03:04:32.434Z,1.73
2022-09-04T03:07:04.325Z,1.50
2022-09-04T03:09:35.130Z,1.93
2022-09-04T03:12:06.096Z,1.70
2022-09-04T03:14:39.237Z,1.60
2022-09-04T03:17:09.870Z,1.50
2022-09-04T03:19:41.393Z,1.60
2022-09-04T03:22:14.447Z,1.97
2022-09-04T03:24:46.822Z,1.50
2022-09-04T03:27:19.081Z,2.07
2022-09-04T03:29:51.673Z,1.50
2022-09-04T03:32:22.639Z,1.97
2022-09-04T03:34:52.906Z,1.70
2022-09-04T03:37:47.761Z,1.60
2022-09-04T03:40:32.210Z,2.00
2022-09-04T03:43:06.576Z,1.97
2022-09-04T03:45:41.058Z,1.63
2022-09-04T03:48:15.561Z,1.60
2022-09-04T03:50:46.055Z,1.90
2022-09-04T03:53:19.330Z,1.93
2022-09-04T03:56:03.699Z,1.73
2022-09-04T03:58:38.591Z,1.83
2022-09-04T04:01:13.511Z,1.90
2022-09-04T04:03:49.671Z,1.60
2022-09-04T04:06:23.448Z,2.10
2022-09-04T04:09:00.360Z,1.80
2022-09-04T04:11:40.158Z,2.23
2022-09-04T04:14:23.994Z,1.93
2022-09-04T04:17:00.411Z,1.67
2022-09-04T04:19:36.166Z,2.03
2022-09-04T04:22:10.513Z,1.63
2022-09-04T04:24:54.417Z,2.00
2022-09-04T04:27:28.305Z,1.70
2022-09-04T04:30:09.391Z,2.20
2022-09-04T04:32:48.725Z,2.33
2022-09-04T04:35:20.127Z,2.30
2022-09-04T04:37:56.390Z,1.90
2022-09-04T04:40:29.240Z,2.03
2022-09-04T04:43:01.352Z,1.80
2022-09-04T04:45:50.416Z,2.20
2022-09-04T04:48:30.548Z,1.97
2022-09-04T04:51:05.508Z,2.03
2022-09-04T04:53:37.600Z,2.57
2022-09-04T04:56:08.269Z,2.17
2022-09-04T04:58:44.699Z,2.27
2022-09-04T05:01:18.977Z,2.07
2022-09-04T05:03:56.275Z,2.07
2022-09-04T05:06:28.361Z,2.33
2022-09-04T05:08:59.211Z,1.80
2022-09-04T05:11:33.421Z,2.27
2022-09-04T05:14:04.173Z,2.57
2022-09-04T05:16:52.258Z,2.70
2022-09-04T05:19:28.427Z,2.73
2022-09-04T05:22:01.089Z,2.77
2022-09-04T05:24:34.032Z,2.43
2022-09-04T05:27:04.417Z,2.27
2022-09-04T05:29:37.582Z,2.67
2022-09-04T05:32:09.455Z,2.63
2022-09-04T05:34:58.802Z,2.77
2022-09-04T05:37:29.263Z,2.87
2022-09-04T05:40:01.730Z,2.93
2022-09-04T05:42:42.378Z,2.90
2022-09-04T05:45:14.742Z,2.90
2022-09-04T05:47:45.918Z,2.83
2022-09-04T05:50:26.043Z,2.60
2022-09-04T05:53:00.114Z,2.40
2022-09-04T05:55:38.705Z,2.63
2022-09-04T05:58:17.758Z,2.33
2022-09-04T06:00:47.754Z,2.30
2022-09-04T06:03:24.716Z,3.00
2022-09-04T06:05:59.980Z,2.47
2022-09-04T06:08:33.400Z,3.03
2022-09-04T06:11:07.362Z,3.10
2022-09-04T06:13:48.901Z,3.13
2022-09-04T06:16:24.635Z,2.93
2022-09-04T06:19:02.967Z,3.83
2022-09-04T06:21:54.394Z,3.10
2022-09-04T06:24:37.225Z,3.53
2022-09-04T06:27:12.177Z,3.30
2022-09-04T06:29:49.877Z,3.13
2022-09-04T06:32:44.889Z,2.90
2022-09-04T06:35:26.831Z,2.60
2022-09-04T06:38:04.873Z,2.63
2022-09-04T06:40:42.992Z,2.60
2022-09-04T06:43:16.958Z,2.80
2022-09-04T06:45:48.609Z,3.40
2022-09-04T06:48:25.079Z,2.63
2022-09-04T06:50:59.347Z,2.60
2022-09-04T06:53:34.792Z,3.00
2022-09-04T06:56:11.699Z,3.40
2022-09-04T06:58:48.545Z,2.60
2022-09-04T07:01:19.958Z,2.63
2022-09-04T07:03:59.393Z,2.87
2022-09-04T07:06:33.569Z,2.83
2022-09-04T07:09:06.759Z,3.07
2022-09-04T07:11:42.407Z,2.83
2022-09-04T07:14:23.704Z,3.57
2022-09-04T07:16:59.907Z,5.60
2022-09-04T07:20:03.181Z,3.67
2022-09-04T07:22:54.311Z,2.77
2022-09-04T07:25:29.583Z,2.77
2022-09-04T07:28:08.715Z,2.73
2022-09-04T07:30:41.660Z,3.57
2022-09-04T07:33:16.466Z,2.93
2022-09-04T07:35:48.456Z,3.43
2022-09-04T07:38:20.569Z,3.50
2022-09-04T07:40:53.553Z,3.07
2022-09-04T07:43:24.873Z,3.03
2022-09-04T07:46:00.443Z,2.60
2022-09-04T07:48:31.777Z,3.30
2022-09-04T07:51:10.395Z,3.23
2022-09-04T07:53:54.016Z,2.73
2022-09-04T07:56:32.802Z,3.17
2022-09-04T07:59:21.782Z,3.33
2022-09-04T08:01:59.610Z,3.30
2022-09-04T08:04:38.487Z,4.80
2022-09-04T08:07:11.463Z,3.50
2022-09-04T08:09:43.379Z,3.30
2022-09-04T08:12:27.659Z,3.20
2022-09-04T08:14:57.857Z,6.20
2022-09-04T08:17:43.691Z,10.27
2022-09-04T08:20:20.186Z,4.40
2022-09-04T08:22:53.890Z,3.47
2022-09-04T08:25:26.968Z,3.30
2022-09-04T08:28:01.359Z,2.93
2022-09-04T08:30:32.565Z,3.00
2022-09-04T08:33:16.070Z,3.17
2022-09-04T08:35:49.607Z,3.27
2022-09-04T08:38:32.317Z,3.73
2022-09-04T08:41:21.139Z,3.83
2022-09-04T08:43:58.060Z,3.20
2022-09-04T08:46:39.446Z,2.97
2022-09-04T08:49:22.622Z,2.50
2022-09-04T08:52:11.606Z,2.73
2022-09-04T08:54:51.143Z,2.67
2022-09-04T08:57:30.046Z,3.00
2022-09-04T09:00:04.601Z,3.00
2022-09-04T09:02:50.960Z,2.40
2022-09-04T09:05:32.221Z,2.60
2022-09-04T09:08:23.302Z,2.50
2022-09-04T09:11:00.604Z,2.50
2022-09-04T09:13:46.654Z,2.43
2022-09-04T09:16:24.681Z,2.50
2022-09-04T09:19:09.719Z,2.70
2022-09-04T09:21:45.049Z,2.70
2022-09-04T09:24:30.833Z,2.90
2022-09-04T09:27:11.419Z,3.07
2022-09-04T09:30:00.881Z,2.87
2022-09-04T09:32:42.800Z,2.70
2022-09-04T09:35:27.814Z,3.00
2022-09-04T09:38:20.092Z,2.80
2022-09-04T09:41:09.897Z,3.07
2022-09-04T09:44:01.078Z,2.63
2022-09-04T09:46:38.742Z,2.87
2022-09-04T09:49:18.707Z,2.77
2022-09-04T09:52:09.849Z,3.33
2022-09-04T09:54:55.524Z,3.03
2022-09-04T09:57:46.841Z,3.43
2022-09-04T10:00:15.682Z,2.63
2022-09-04T10:02:58.489Z,2.80
2022-09-04T10:05:56.714Z,3.00
2022-09-04T10:08:45.531Z,2.60
2022-09-04T10:11:31.166Z,2.93
2022-09-04T10:14:18.862Z,2.80
2022-09-04T10:17:10.852Z,2.77
2022-09-04T10:19:53.933Z,2.67
2022-09-04T10:22:45.853Z,2.83
2022-09-04T10:25:35.494Z,3.30
2022-09-04T10:28:15.542Z,2.67
2022-09-04T10:30:57.190Z,3.10
2022-09-04T10:33:34.059Z,3.23
2022-09-04T10:36:06.471Z,2.60
2022-09-04T10:38:59.721Z,2.40
2022-09-04T10:41:49.410Z,2.80
2022-09-04T10:44:41.127Z,2.57
2022-09-04T10:47:16.625Z,2.63
2022-09-04T10:49:52.090Z,2.57
2022-09-04T10:52:53.299Z,3.23
2022-09-04T10:55:26.801Z,3.03
2022-09-04T10:58:02.184Z,3.10
2022-09-04T11:00:36.375Z,2.63
2022-09-04T11:03:31.224Z,2.50
2022-09-04T11:06:29.252Z,2.53
2022-09-04T11:09:05.432Z,2.47
2022-09-04T11:11:47.708Z,2.50
2022-09-04T11:14:21.716Z,2.30
2022-09-04T11:17:10.349Z,3.00
2022-09-04T11:19:53.441Z,2.43
2022-09-04T11:22:48.793Z,2.27
2022-09-04T11:25:34.573Z,2.13
2022-09-04T11:28:08.420Z,2.23
2022-09-04T11:30:52.389Z,2.73
2022-09-04T11:33:39.109Z,2.87
2022-09-04T11:36:22.222Z,3.00
2022-09-04T11:39:05.120Z,2.10
2022-09-04T11:42:01.105Z,2.60
2022-09-04T11:44:47.608Z,2.20
2022-09-04T11:47:42.789Z,2.30
2022-09-04T11:50:21.797Z,2.20
2022-09-04T11:53:02.151Z,2.10
2022-09-04T11:55:36.760Z,2.23
2022-09-04T11:58:20.980Z,2.10
2022-09-04T12:00:58.584Z,1.80
2022-09-04T12:03:39.231Z,2.00
2022-09-04T12:06:15.196Z,2.63
2022-09-04T12:09:07.385Z,2.40
2022-09-04T12:11:56.623Z,2.40
2022-09-04T12:14:33.793Z,2.60
2022-09-04T12:17:26.331Z,2.47
2022-09-04T12:20:09.261Z,2.30
2022-09-04T12:22:52.551Z,2.27
2022-09-04T12:25:41.191Z,3.03
2022-09-04T12:28:21.722Z,2.40
2022-09-04T12:30:58.765Z,2.20
2022-09-04T12:33:46.953Z,1.90
2022-09-04T12:36:29.680Z,2.20
2022-09-04T12:39:18.650Z,2.00
2022-09-04T12:41:51.952Z,2.30
2022-09-04T12:44:23.866Z,1.83
2022-09-04T12:47:00.749Z,2.07
2022-09-04T12:49:39.541Z,2.47
2022-09-04T12:52:19.323Z,2.50
2022-09-04T12:54:53.023Z,1.90
2022-09-04T12:57:30.547Z,2.60
2022-09-04T13:00:05.593Z,1.83
2022-09-04T13:02:39.249Z,2.40
2022-09-04T13:05:16.033Z,2.30
2022-09-04T13:07:49.186Z,2.70
2022-09-04T13:10:23.133Z,2.20
2022-09-04T13:12:59.567Z,2.13
2022-09-04T13:15:32.414Z,1.80
2022-09-04T13:18:14.449Z,1.87
2022-09-04T13:20:47.344Z,2.20
2022-09-04T13:23:21.280Z,2.30
2022-09-04T13:25:59.739Z,2.43
2022-09-04T13:28:35.944Z,1.47
2022-09-04T13:31:09.989Z,1.67
2022-09-04T13:33:49.122Z,2.13
2022-09-04T13:36:24.212Z,1.67
2022-09-04T13:39:06.657Z,1.83
2022-09-04T13:41:40.212Z,2.27
2022-09-04T13:44:24.194Z,2.07
2022-09-04T13:46:57.951Z,2.17
2022-09-04T13:49:28.873Z,1.67
2022-09-04T13:51:59.650Z,1.90
2022-09-04T13:54:31.551Z,1.57
2022-09-04T13:57:04.339Z,2.73
2022-09-04T13:59:34.458Z,1.60
2022-09-04T14:02:05.073Z,1.80
2022-09-04T14:04:35.943Z,1.57
2022-09-04T14:07:07.449Z,1.50
2022-09-04T14:09:39.237Z,1.77
2022-09-04T14:12:15.665Z,1.67
2022-09-04T14:15:13.927Z,1.55
2022-09-04T14:17:46.407Z,2.22
2022-09-04T14:20:20.616Z,1.33
2022-09-04T14:22:53.277Z,1.73
2022-09-04T14:25:29.949Z,1.67
2022-09-04T14:28:03.641Z,1.88
2022-09-04T14:30:35.625Z,1.50
2022-09-04T14:33:28.423Z,1.40
2022-09-04T14:36:08.731Z,1.40
2022-09-04T14:38:49.530Z,1.17
2022-09-04T14:41:36.009Z,1.70
2022-09-04T14:44:13.008Z,1.80
2022-09-04T14:46:50.802Z,1.45
2022-09-04T14:49:23.390Z,2.00
2022-09-04T14:51:56.662Z,1.52
2022-09-04T14:54:26.774Z,1.30
2022-09-04T14:56:57.717Z,1.73
2022-09-04T14:59:29.564Z,1.67
2022-09-04T15:02:03.121Z,1.70
2022-09-04T15:04:35.648Z,1.23
2022-09-04T15:07:11.606Z,1.25
2022-09-04T15:09:42.370Z,1.60
2022-09-04T15:12:25.009Z,1.17
2022-09-04T15:14:55.997Z,1.43
2022-09-04T15:17:28.631Z,1.40
2022-09-04T15:20:01.210Z,1.50
2022-09-04T15:22:32.865Z,1.63
2022-09-04T15:25:03.346Z,1.83
2022-09-04T15:27:34.295Z,1.30
2022-09-04T15:30:07.308Z,1.23
2022-09-04T15:32:39.918Z,1.40
2022-09-04T15:35:13.035Z,1.37
2022-09-04T15:37:42.503Z,3.23
2022-09-04T15:40:12.436Z,1.30
2022-09-04T15:42:44.156Z,1.20
2022-09-04T15:45:18.133Z,1.77
2022-09-04T15:48:00.898Z,1.43
2022-09-04T15:50:32.278Z,1.90
2022-09-04T15:53:10.498Z,1.38
2022-09-04T15:55:40.039Z,1.30
2022-09-04T15:58:12.848Z,1.60
2022-09-04T16:00:42.608Z,1.53
2022-09-04T16:03:15.382Z,1.20
2022-09-04T16:05:45.918Z,1.60
2022-09-04T16:08:21.183Z,1.77
2022-09-04T16:10:57.557Z,2.27
2022-09-04T16:13:45.012Z,1.50
2022-09-04T16:16:15.582Z,1.35
2022-09-04T16:18:50.349Z,1.83
2022-09-04T16:21:23.870Z,2.25
2022-09-04T16:23:52.714Z,1.65
2022-09-04T16:26:24.241Z,2.30
2022-09-04T16:28:56.031Z,1.27
2022-09-04T16:31:25.318Z,1.67
2022-09-04T16:33:54.803Z,1.20
2022-09-04T16:36:26.549Z,1.48
2022-09-04T16:38:57.498Z,1.48
2022-09-04T16:41:29.404Z,1.60
2022-09-04T16:44:14.090Z,1.40
2022-09-04T16:46:48.150Z,1.60
2022-09-04T16:49:22.127Z,1.70
2022-09-04T16:51:53.502Z,1.15
2022-09-04T16:54:28.845Z,1.43
2022-09-04T16:57:13.041Z,1.20
2022-09-04T16:59:43.700Z,1.40
2022-09-04T17:02:19.759Z,1.85
2022-09-04T17:04:51.357Z,1.45
2022-09-04T17:07:23.147Z,1.70
2022-09-04T17:09:58.989Z,1.60
2022-09-04T17:12:32.967Z,1.75
2022-09-04T17:15:07.848Z,1.30
2022-09-04T17:17:41.191Z,1.30
2022-09-04T17:20:10.342Z,1.52
2022-09-04T17:28:54.690Z,1.70
2022-09-04T17:29:12.474Z,1.88
2022-09-04T17:29:15.600Z,1.70
2022-09-04T17:31:29.501Z,1.63
2022-09-04T17:40:41.684Z,1.50
2022-09-04T17:40:48.282Z,1.50
2022-09-04T17:40:51.297Z,1.40
2022-09-04T17:42:40.341Z,2.10
2022-09-04T17:45:17.152Z,1.80
2022-09-04T17:47:45.158Z,2.07
2022-09-04T17:50:15.371Z,2.40
2022-09-04T17:52:57.816Z,1.80
2022-09-04T17:55:28.330Z,2.00
2022-09-04T17:58:00.296Z,2.90
2022-09-04T18:00:32.933Z,1.93
2022-09-04T18:03:04.173Z,1.67
2022-09-04T18:05:36.391Z,1.83
2022-09-04T18:08:17.783Z,1.77
2022-09-04T18:10:53.320Z,1.70
2022-09-04T18:13:36.348Z,1.60
2022-09-04T18:16:11.093Z,2.03
2022-09-04T18:18:40.040Z,2.10
2022-09-04T18:21:10.534Z,3.63
2022-09-04T18:23:51.968Z,2.90
2022-09-04T18:26:25.706Z,3.50
2022-09-04T18:29:07.524Z,2.63
2022-09-04T18:37:09.419Z,3.03
2022-09-04T18:37:17.418Z,2.77
2022-09-04T18:37:47.342Z,3.40
2022-09-04T18:40:16.944Z,2.60
2022-09-04T18:50:22.893Z,2.80
2022-09-04T18:50:38.073Z,2.77
2022-09-04T18:50:45.370Z,2.80
2022-09-04T18:51:41.000Z,2.80
2022-09-04T18:54:12.124Z,3.70
2022-09-04T18:56:43.593Z,3.20
2022-09-04T18:59:16.531Z,3.00
2022-09-04T19:01:46.225Z,3.47
2022-09-04T19:04:32.062Z,2.90
2022-09-04T19:07:07.707Z,3.27
2022-09-04T19:09:53.776Z,3.40
2022-09-04T19:12:24.831Z,4.20
2022-09-04T19:15:08.614Z,3.93
2022-09-04T19:17:38.114Z,3.13
2022-09-04T19:20:10.431Z,3.13
2022-09-04T19:22:40.840Z,3.60
2022-09-04T19:25:14.891Z,3.60
2022-09-04T19:27:43.986Z,3.60
2022-09-04T19:30:19.942Z,3.63
2022-09-04T19:33:02.768Z,4.77
2022-09-04T19:35:33.625Z,3.87
2022-09-04T19:45:09.796Z,3.67
2022-09-04T19:45:54.772Z,4.27
2022-09-04T19:46:13.432Z,4.03
2022-09-04T19:46:45.485Z,5.63
2022-09-04T19:52:30.385Z,4.97
2022-09-04T19:53:33.786Z,3.63
2022-09-04T19:55:25.214Z,3.30
2022-09-04T19:57:53.038Z,4.03
2022-09-04T20:00:42.396Z,4.40
2022-09-04T20:03:29.532Z,3.97
2022-09-04T20:06:19.907Z,4.00
2022-09-04T20:08:51.892Z,4.63
2022-09-04T20:11:35.248Z,4.77
2022-09-04T20:14:14.083Z,4.30
2022-09-04T20:16:48.653Z,3.73
2022-09-04T20:19:27.669Z,3.70
2022-09-04T20:21:58.448Z,3.90
2022-09-04T20:24:27.882Z,3.73
2022-09-04T20:26:59.112Z,3.60
2022-09-04T20:29:31.285Z,3.47
2022-09-04T20:32:02.915Z,3.27
2022-09-04T20:34:36.325Z,6.30
2022-09-04T20:37:23.169Z,5.20
2022-09-04T20:39:59.537Z,6.13
2022-09-04T20:42:29.271Z,6.33
2022-09-04T20:47:05.091Z,6.37
2022-09-04T20:52:44.134Z,5.70
2022-09-04T20:52:52.786Z,4.13
2022-09-04T20:53:42.941Z,4.87
2022-09-04T20:57:18.411Z,4.00
2022-09-04T21:03:09.097Z,3.70
2022-09-04T21:03:18.783Z,3.50
2022-09-04T21:04:54.256Z,3.27
2022-09-04T21:07:28.646Z,2.90
2022-09-04T21:10:00.960Z,3.27
2022-09-04T21:12:33.905Z,4.27
2022-09-04T21:15:05.477Z,3.07
2022-09-04T21:17:54.782Z,3.77
2022-09-04T21:20:59.794Z,3.30
2022-09-04T21:23:51.273Z,2.83
2022-09-04T21:26:40.514Z,3.53
2022-09-04T21:29:26.170Z,3.90
2022-09-04T21:32:11.640Z,3.30
2022-09-04T21:34:57.220Z,3.40
2022-09-04T21:37:29.239Z,2.77
2022-09-04T21:40:20.240Z,2.60
2022-09-04T21:43:12.073Z,3.00
2022-09-04T21:45:45.369Z,2.63
2022-09-04T21:48:33.993Z,3.20
2022-09-04T21:51:05.175Z,2.60
2022-09-04T21:53:44.494Z,2.10
2022-09-04T22:01:12.005Z,2.30
2022-09-04T22:02:40.291Z,2.10
2022-09-04T22:02:51.547Z,2.40
2022-09-04T22:05:20.488Z,2.93
2022-09-04T22:12:57.353Z,3.47
2022-09-04T22:13:41.988Z,3.63
2022-09-04T22:13:49.379Z,3.50
2022-09-04T22:16:29.146Z,3.17
2022-09-04T22:19:16.319Z,3.37
2022-09-04T22:21:55.435Z,3.03
2022-09-04T22:24:52.712Z,2.60
2022-09-04T22:27:56.574Z,2.80
2022-09-04T22:30:24.317Z,2.70
2022-09-04T22:32:58.321Z,2.70
2022-09-04T22:35:46.864Z,2.30
2022-09-04T22:38:32.424Z,2.13
2022-09-04T22:41:14.567Z,2.33
2022-09-04T22:43:47.156Z,2.67
2022-09-04T22:46:31.085Z,2.77
2022-09-04T22:49:14.013Z,2.37
2022-09-04T22:52:09.922Z,2.50
2022-09-04T22:54:44.591Z,2.40
2022-09-04T22:57:17.417Z,2.57
2022-09-04T23:00:03.837Z,2.03
2022-09-04T23:05:54.151Z,2.67
2022-09-04T23:13:46.234Z,3.77
2022-09-04T23:13:53.166Z,2.73
2022-09-04T23:14:44.322Z,3.47
2022-09-04T23:17:24.697Z,3.57
2022-09-04T23:26:31.610Z,3.23
2022-09-04T23:26:41.906Z,3.83
2022-09-04T23:26:52.827Z,3.97
2022-09-04T23:29:06.675Z,3.80
2022-09-04T23:31:42.702Z,4.07
2022-09-04T23:34:29.174Z,3.23
2022-09-04T23:37:18.659Z,3.27
2022-09-04T23:40:02.206Z,3.50
2022-09-04T23:42:45.409Z,3.23
2022-09-04T23:45:24.251Z,3.00
2022-09-04T23:48:14.373Z,3.67
2022-09-04T23:50:48.522Z,3.23
2022-09-04T23:53:23.145Z,3.00
2022-09-04T23:55:55.832Z,3.10
2022-09-04T23:58:52.203Z,3.13
